TSS weather

East 34th Street Heliport
New York, New York, United States

Public forecast

Using degrees Fahrenheit for public forecast. Weather courtesy of forecast.io.

Closest aviation weather report (METAR) to East 34th Street Heliport

Closest report is La Guardia Airport, 5.0 nm (9.2 km) ENE. Retrieved 2020/02/24 10:51 UTC (1 hour ago):

KLGA 241051Z 18007KT 10SM CLR 05/M03 A3006 RMK AO2 SLP178 T00501028

Closest aviation forecast (TAF) to East 34th Street Heliport

Closest forecast is La Guardia Airport, 5.0 nm (9.2 km) ENE. Retrieved 2020/02/24 06:30 UTC (5 hours ago):

TAF KLGA 240527Z 2406/2512 20004KT P6SM FEW120 FM241500 21007KT P6SM SCT250 FM241900 19010KT P6SM BKN250 FM250200 18006KT P6SM OVC100 FM250800 19005KT P6SM SCT025 OVC050 FM251100 21004KT P6SM VCSH BKN025 OVC050